Time;durP1;ratioP1;P1;durP2;ratioP2;P2;SDS_P1;SDS_P2;PMS_P1;PMS_P2;Temp;Humidity;BMP_temperature;BMP_pressure;BME280_temperature;BME280_humidity;BME280_pressure;Samples;Min_cycle;Max_cycle;Signal;HPM_P1;HPM_P2
2023/02/16 00:00:25;;;;;;;48.55;29.02;;;;;;;1.13;53.76;95057.41;4973910;28;20137;-77
2023/02/16 00:02:51;;;;;;;45.47;28.63;;;;;;;1.11;53.79;95049.75;4975325;28;20495;-76
2023/02/16 00:05:24;;;;;;;42.75;27.88;;;;;;;0.98;53.81;95042.09;4976026;28;20050;-76
2023/02/16 00:07:51;;;;;;;50.85;30.48;;;;;;;1.12;53.87;95055.81;4975475;28;20038;-76
2023/02/16 00:10:17;;;;;;;45.95;29.75;;;;;;;1.09;53.80;95061.47;4975283;28;20061;-76
2023/02/16 00:15:34;;;;;;;43.63;28.38;;;;;;;1.07;53.69;95058.28;4952166;28;20092;-76
2023/02/16 00:18:02;;;;;;;54.28;29.10;;;;;;;1.06;53.63;95061.94;4975719;28;20030;-74
2023/02/16 00:20:37;;;;;;;45.58;27.02;;;;;;;0.98;53.51;95046.53;4975776;28;20092;-76
2023/02/16 00:23:02;;;;;;;40.78;23.38;;;;;;;1.00;53.47;95041.84;4976104;28;20042;-76
2023/02/16 00:25:28;;;;;;;41.35;25.30;;;;;;;1.01;53.74;95056.56;4974038;28;20081;-76
2023/02/16 00:27:53;;;;;;;41.58;24.52;;;;;;;1.04;53.55;95048.25;4973241;28;20026;-73
2023/02/16 00:30:21;;;;;;;45.28;29.10;;;;;;;0.91;53.89;95030.09;4973009;28;20035;-76
2023/02/16 00:32:46;;;;;;;43.00;25.65;;;;;;;0.88;53.70;95023.50;4976374;28;20042;-77
2023/02/16 00:35:17;;;;;;;40.95;26.38;;;;;;;0.94;53.93;95037.50;4972526;28;20651;-75
2023/02/16 00:37:42;;;;;;;40.92;25.65;;;;;;;0.82;53.58;95020.97;4972329;28;20138;-75
2023/02/16 00:40:09;;;;;;;41.58;25.55;;;;;;;0.88;53.88;95044.47;4970771;28;20043;-76
2023/02/16 00:42:34;;;;;;;39.70;22.25;;;;;;;0.84;53.79;95035.41;4971037;28;20054;-75
2023/02/16 00:45:01;;;;;;;29.67;20.95;;;;;;;0.83;53.72;95030.44;4969418;28;20153;-75
2023/02/16 00:47:33;;;;;;;34.22;20.08;;;;;;;0.83;53.69;95030.44;4971765;28;20354;-76
2023/02/16 00:49:58;;;;;;;29.77;19.80;;;;;;;0.73;53.23;95000.34;4971261;28;20037;-76
2023/02/16 00:52:28;;;;;;;31.58;17.92;;;;;;;1.05;53.32;95048.03;4976169;28;20034;-76
2023/02/16 00:54:53;;;;;;;28.48;17.80;;;;;;;0.96;53.63;95048.56;4973676;28;20033;-75
2023/02/16 00:57:19;;;;;;;27.83;17.95;;;;;;;0.76;53.86;95028.69;4969081;28;20470;-76
2023/02/16 00:59:47;;;;;;;28.75;18.98;;;;;;;0.74;53.79;95022.09;4968328;28;20213;-76
2023/02/16 01:02:16;;;;;;;29.40;18.10;;;;;;;0.89;53.64;95040.03;4970939;28;20445;-75
2023/02/16 01:04:41;;;;;;;27.25;18.13;;;;;;;0.77;53.50;95022.44;4974343;28;20030;-76
2023/02/16 01:12:42;;;;;;;30.25;18.77;;;;;;;0.58;53.71;95015.66;4974707;28;20049;-76
2023/02/16 01:15:13;;;;;;;26.58;17.13;;;;;;;0.80;53.73;95031.66;4973913;28;20410;-77
2023/02/16 01:17:39;;;;;;;27.38;17.88;;;;;;;0.73;53.89;95023.09;4974574;28;20538;-75
2023/02/16 01:20:16;;;;;;;30.40;18.60;;;;;;;0.40;53.59;94983.47;4973914;28;20038;-75
2023/02/16 01:22:41;;;;;;;28.70;17.33;;;;;;;0.65;53.77;95002.44;4972469;28;20039;-76
2023/02/16 01:25:07;;;;;;;26.90;17.80;;;;;;;0.85;53.37;95034.41;4971658;28;20029;-75
2023/02/16 01:27:36;;;;;;;26.75;16.80;;;;;;;0.83;53.65;95014.72;4974372;28;20123;-76
2023/02/16 01:30:02;;;;;;;21.45;15.23;;;;;;;0.83;53.51;95022.56;4973339;28;20093;-76
2023/02/16 01:32:27;;;;;;;30.33;15.95;;;;;;;0.45;53.46;94960.81;4972135;28;20526;-76
2023/02/16 01:34:53;;;;;;;25.83;15.55;;;;;;;0.74;53.39;95001.91;4973366;28;20053;-76
2023/02/16 01:37:18;;;;;;;21.13;14.27;;;;;;;0.72;53.25;95006.59;4970672;28;20595;-75
2023/02/16 01:39:44;;;;;;;26.55;14.93;;;;;;;0.64;53.35;94999.03;4973994;28;20050;-76
2023/02/16 01:42:17;;;;;;;22.50;14.95;;;;;;;0.72;53.53;95009.22;4968856;28;20165;-77
2023/02/16 01:44:50;;;;;;;22.73;13.68;;;;;;;0.72;53.44;95003.97;4973434;28;20038;-76
2023/02/16 01:47:50;;;;;;;25.92;14.52;;;;;;;0.72;53.31;95011.81;4972672;28;20038;-76
2023/02/16 01:50:22;;;;;;;22.80;14.32;;;;;;;0.56;53.12;94975.78;4973031;28;20874;-76
2023/02/16 01:53:17;;;;;;;30.70;16.60;;;;;;;0.60;53.34;95000.50;4971174;28;20046;-76
2023/02/16 01:55:48;;;;;;;26.63;16.20;;;;;;;0.54;53.20;94984.91;4966798;28;20457;-76
2023/02/16 01:58:30;;;;;;;27.20;16.98;;;;;;;0.57;53.29;94987.06;4973910;28;20035;-75
2023/02/16 02:00:56;;;;;;;30.88;18.38;;;;;;;0.62;53.35;94998.47;4972164;28;20042;-76
2023/02/16 02:06:12;;;;;;;27.35;18.10;;;;;;;0.66;53.12;95002.22;4972006;28;20037;-77
2023/02/16 02:08:47;;;;;;;26.35;16.35;;;;;;;0.59;53.48;95008.59;4972536;28;20042;-76
2023/02/16 02:11:16;;;;;;;;;;;;;;;0.56;53.57;95003.78;4972921;28;20109;-75
2023/02/16 02:14:05;;;;;;;24.55;14.80;;;;;;;0.62;53.64;95000.28;4973440;28;20504;-75
2023/02/16 02:16:30;;;;;;;29.48;16.92;;;;;;;0.36;53.45;94977.84;4971068;28;20042;-76
2023/02/16 02:18:56;;;;;;;27.77;17.65;;;;;;;0.51;53.57;94990.56;4972990;28;20034;-76
2023/02/16 02:24:26;;;;;;;30.42;17.52;;;;;;;0.44;54.09;95001.13;4973699;28;20057;-76
2023/02/16 02:27:03;;;;;;;32.83;19.63;;;;;;;0.39;54.08;94979.25;4976209;28;20133;-75
2023/02/16 02:30:06;;;;;;;30.38;20.00;;;;;;;0.52;54.01;95000.00;4971676;28;20124;-76
2023/02/16 02:32:55;;;;;;;30.55;18.60;;;;;;;0.38;54.16;95004.63;4972428;28;20038;-76
2023/02/16 02:35:51;;;;;;;29.00;18.52;;;;;;;0.39;54.11;94987.91;4971555;28;20042;-74
2023/02/16 02:38:44;;;;;;;28.60;19.05;;;;;;;0.53;53.86;94983.28;4974339;28;20129;-76
2023/02/16 02:42:04;;;;;;;29.05;18.10;;;;;;;0.50;53.96;94986.34;4974525;28;20515;-75
2023/02/16 02:44:38;;;;;;;28.27;17.33;;;;;;;0.47;53.78;94984.97;4969492;28;20088;-76
2023/02/16 02:47:04;;;;;;;29.23;17.92;;;;;;;0.47;53.65;94973.69;4989969;28;20050;-76
2023/02/16 02:49:29;;;;;;;26.98;17.15;;;;;;;0.43;53.65;94981.22;4972647;28;20035;-76
2023/02/16 02:51:56;;;;;;;33.58;19.77;;;;;;;0.49;53.88;94995.22;4975639;28;20122;-76
2023/02/16 03:00:50;;;;;;;29.77;18.75;;;;;;;0.51;54.03;95001.81;4973892;28;20065;-76
2023/02/16 03:03:18;;;;;;;25.90;17.13;;;;;;;0.47;53.94;95000.69;4973177;28;20070;-76
2023/02/16 03:05:53;;;;;;;27.27;16.90;;;;;;;0.31;53.74;94982.97;4974015;28;20088;-76
2023/02/16 03:08:22;;;;;;;23.55;15.02;;;;;;;0.36;53.64;94989.13;4975165;28;20773;-75
2023/02/16 03:13:47;;;;;;;26.63;15.45;;;;;;;0.41;54.08;95001.56;4977325;28;20505;-75
2023/02/16 03:16:20;;;;;;;25.60;16.13;;;;;;;0.26;53.85;94978.38;4977842;28;20149;-75
2023/02/16 03:30:04;;;;;;;22.33;13.45;;;;;;;0.33;53.48;94988.78;4975729;28;20426;-76
2023/02/16 03:32:30;;;;;;;18.73;12.10;;;;;;;0.23;53.59;94980.66;4976672;28;20096;-75
2023/02/16 03:34:56;;;;;;;21.75;13.63;;;;;;;0.17;53.60;94971.06;4974851;28;20589;-75
2023/02/16 03:37:21;;;;;;;20.58;14.20;;;;;;;0.18;53.90;94980.50;4976455;28;20024;-76
2023/02/16 03:42:32;;;;;;;;;;;;;;;0.30;53.86;94981.38;4977060;28;20041;-75
2023/02/16 03:44:58;;;;;;;25.10;15.23;;;;;;;0.19;53.72;94977.69;4975085;28;19917;-76
2023/02/16 03:47:24;;;;;;;22.58;14.38;;;;;;;0.31;53.90;94990.81;4976309;28;20132;-75
2023/02/16 03:49:49;;;;;;;26.83;16.30;;;;;;;-0.03;53.77;94944.34;4976617;28;20046;-76
2023/02/16 03:52:14;;;;;;;25.33;15.98;;;;;;;0.07;53.78;94968.16;4975879;28;20034;-76
2023/02/16 03:54:40;;;;;;;25.83;15.82;;;;;;;0.15;54.04;94976.53;4974639;28;20478;-76
2023/02/16 03:57:05;;;;;;;25.05;15.40;;;;;;;0.19;53.97;94966.41;4977513;28;20038;-76
2023/02/16 03:59:30;;;;;;;25.70;15.30;;;;;;;0.29;54.13;94992.88;4975525;28;20849;-76
2023/02/16 04:01:56;;;;;;;30.42;18.17;;;;;;;0.14;54.09;94959.22;4975421;28;20498;-76
2023/02/16 04:04:21;;;;;;;30.17;18.42;;;;;;;0.17;54.18;94963.22;4975534;28;20018;-75
2023/02/16 04:06:47;;;;;;;40.88;21.85;;;;;;;0.21;54.39;94980.88;4976053;28;20010;-76
2023/02/16 04:09:12;;;;;;;33.08;19.70;;;;;;;0.06;54.53;94961.31;4973608;28;20053;-75
2023/02/16 04:14:24;;;;;;;32.17;22.23;;;;;;;0.26;54.24;94972.34;4976510;28;20144;-75
2023/02/16 04:16:49;;;;;;;34.85;21.30;;;;;;;0.35;54.68;94984.09;4975811;28;20562;-75
2023/02/16 04:19:15;;;;;;;38.45;22.45;;;;;;;0.22;54.50;94951.06;4976643;28;21467;-76
2023/02/16 04:21:41;;;;;;;37.95;21.50;;;;;;;0.30;54.65;94968.31;4977234;28;20019;-76
2023/02/16 04:24:07;;;;;;;37.13;21.50;;;;;;;0.26;54.18;94962.69;4973975;28;20062;-76
2023/02/16 04:26:32;;;;;;;32.70;21.17;;;;;;;0.13;54.61;94955.00;4976636;28;20569;-76
2023/02/16 04:28:58;;;;;;;34.90;21.98;;;;;;;0.01;54.84;94948.91;4972985;28;20164;-75
2023/02/16 04:31:23;;;;;;;39.25;22.58;;;;;;;0.09;54.70;94963.53;4975292;28;20788;-76
2023/02/16 04:33:49;;;;;;;36.00;23.35;;;;;;;0.06;54.78;94972.59;4975397;28;20105;-76
2023/02/16 04:36:14;;;;;;;36.38;22.38;;;;;;;-0.02;54.44;94965.06;4975380;28;20030;-76
2023/02/16 04:38:40;;;;;;;42.03;25.98;;;;;;;-0.08;54.70;94945.78;4974086;28;20466;-75
2023/02/16 04:41:05;;;;;;;40.70;24.67;;;;;;;0.13;54.20;94951.59;4973476;28;20050;-75
2023/02/16 04:43:31;;;;;;;67.00;35.53;;;;;;;0.11;54.32;94966.69;4973610;28;20436;-75
2023/02/16 04:45:57;;;;;;;51.95;29.50;;;;;;;0.06;54.50;94979.63;4976188;28;20022;-76
2023/02/16 04:48:22;;;;;;;48.00;29.08;;;;;;;0.05;54.40;94975.44;4975416;28;20525;-76
2023/02/16 04:50:48;;;;;;;45.88;26.83;;;;;;;0.05;54.16;94972.84;4973596;28;20503;-77
2023/02/16 04:53:14;;;;;;;38.90;24.42;;;;;;;-0.12;54.18;94965.56;4972641;28;20046;-76
2023/02/16 04:55:44;;;;;;;44.97;27.13;;;;;;;-0.10;54.33;94978.44;4972759;28;20089;-76
2023/02/16 04:58:10;;;;;;;44.70;25.55;;;;;;;-0.05;54.50;94978.56;4971915;28;20026;-75
2023/02/16 05:00:35;;;;;;;38.10;24.15;;;;;;;-0.02;54.46;94990.41;4973142;28;20427;-76
2023/02/16 05:03:01;;;;;;;40.38;23.00;;;;;;;-0.20;54.39;94952.78;4972056;28;20512;-75
2023/02/16 05:05:26;;;;;;;36.67;21.40;;;;;;;-0.10;54.23;94984.47;4974249;28;20042;-76
2023/02/16 05:07:52;;;;;;;34.22;20.10;;;;;;;-0.11;54.59;94988.09;4974280;28;20525;-76
2023/02/16 05:10:17;;;;;;;27.55;18.00;;;;;;;-0.11;54.59;94998.56;4974058;28;20030;-76
2023/02/16 05:15:27;;;;;;;32.58;19.80;;;;;;;-0.32;54.76;94970.19;4976046;28;20049;-76
2023/02/16 05:17:52;;;;;;;30.65;18.45;;;;;;;-0.19;54.78;94993.59;4974356;28;20101;-76
2023/02/16 05:20:18;;;;;;;48.50;29.02;;;;;;;-0.29;55.03;94995.94;4972095;28;20034;-75
2023/02/16 05:22:45;;;;;;;54.80;33.97;;;;;;;-0.29;55.08;95001.16;4973618;28;20038;-76
2023/02/16 05:25:11;;;;;;;44.45;25.88;;;;;;;-0.35;54.93;94985.53;4974259;28;20600;-76
2023/02/16 05:27:36;;;;;;;40.95;24.13;;;;;;;-0.31;55.01;94995.34;4975775;28;20035;-76
2023/02/16 05:30:02;;;;;;;35.05;23.42;;;;;;;-0.46;54.99;94979.19;4972872;28;20051;-76
2023/02/16 05:32:28;;;;;;;38.78;23.98;;;;;;;-0.32;54.81;94985.88;4974124;28;20030;-76
2023/02/16 05:34:53;;;;;;;41.97;25.75;;;;;;;-0.55;54.96;94964.81;4972048;28;20525;-75
2023/02/16 05:37:19;;;;;;;41.22;24.42;;;;;;;-0.23;55.11;95005.50;4972333;28;20469;-76
2023/02/16 05:39:44;;;;;;;40.35;26.83;;;;;;;-0.30;55.24;95004.78;4973603;28;20070;-75
2023/02/16 05:42:10;;;;;;;52.90;30.95;;;;;;;-0.45;55.01;94993.88;4973959;28;20248;-75
2023/02/16 05:44:36;;;;;;;46.17;28.67;;;;;;;-0.29;54.96;95016.84;4974210;28;21140;-76
2023/02/16 05:47:02;;;;;;;46.28;28.52;;;;;;;-0.37;55.12;95014.50;4971748;28;20042;-75
2023/02/16 05:49:28;;;;;;;42.13;26.50;;;;;;;-0.41;55.03;95010.72;4973040;28;20154;-75
2023/02/16 05:51:53;;;;;;;42.17;24.77;;;;;;;-0.51;55.42;94989.50;4976749;28;20078;-75
2023/02/16 05:54:19;;;;;;;40.78;24.15;;;;;;;-0.35;55.44;95012.47;4971828;28;20621;-77
2023/02/16 05:56:47;;;;;;;41.38;23.80;;;;;;;-0.28;55.29;95017.63;4975119;28;20522;-75
2023/02/16 05:59:14;;;;;;;43.22;24.65;;;;;;;-0.41;55.32;95002.88;4972175;28;20495;-76
2023/02/16 06:01:40;;;;;;;41.95;25.85;;;;;;;-0.37;55.68;95019.72;4975016;28;20453;-75
2023/02/16 06:04:11;;;;;;;46.97;29.48;;;;;;;-0.25;55.27;95014.59;4974669;28;20038;-75
2023/02/16 06:06:38;;;;;;;42.97;27.75;;;;;;;-0.21;55.92;95031.44;4972312;28;20581;-76
2023/02/16 06:09:05;;;;;;;57.90;32.90;;;;;;;-0.31;56.06;95007.59;4964340;28;20069;-76
2023/02/16 06:11:37;;;;;;;58.97;36.17;;;;;;;-0.22;56.45;95016.75;4971003;28;21458;-75
2023/02/16 06:14:05;;;;;;;71.07;42.63;;;;;;;-0.17;56.85;95030.78;4973520;28;20038;-76
2023/02/16 06:16:32;;;;;;;57.65;36.70;;;;;;;-0.20;57.01;95036.47;4973143;28;20214;-76
2023/02/16 06:18:58;;;;;;;55.30;32.83;;;;;;;-0.20;57.08;95028.63;4974463;28;20061;-76
2023/02/16 06:21:25;;;;;;;56.03;33.90;;;;;;;0.09;56.59;95037.56;4974011;28;20178;-75
2023/02/16 06:23:52;;;;;;;53.08;32.30;;;;;;;0.08;56.69;95043.81;4972279;28;20086;-75
2023/02/16 06:26:17;;;;;;;53.35;30.92;;;;;;;0.08;56.74;95043.81;4975072;28;20035;-76
2023/02/16 06:28:43;;;;;;;53.35;33.22;;;;;;;0.05;56.60;95033.81;4968604;28;20118;-76
2023/02/16 06:31:09;;;;;;;56.05;32.80;;;;;;;0.22;56.35;95042.66;4973893;28;20465;-75
2023/02/16 06:33:34;;;;;;;56.03;34.25;;;;;;;-0.14;57.29;95022.50;4973500;28;20014;-75
2023/02/16 06:35:59;;;;;;;54.35;33.95;;;;;;;0.10;57.17;95046.22;4974473;28;20375;-75
2023/02/16 06:38:25;;;;;;;56.60;34.63;;;;;;;0.16;57.00;95055.78;4973534;28;20057;-75
2023/02/16 06:40:52;;;;;;;57.28;35.53;;;;;;;0.08;57.62;95053.47;4972840;28;20426;-75
2023/02/16 06:43:17;;;;;;;66.00;39.45;;;;;;;0.21;57.10;95053.31;4967005;28;20076;-75
2023/02/16 06:45:42;;;;;;;58.60;37.78;;;;;;;0.16;57.06;95030.44;4978407;28;20482;-75
2023/02/16 06:48:08;;;;;;;57.95;38.20;;;;;;;0.16;57.01;95042.72;4975841;28;20045;-75
2023/02/16 06:50:33;;;;;;;61.03;38.28;;;;;;;0.34;56.42;95043.53;4978078;28;20049;-75
2023/02/16 06:52:58;;;;;;;60.22;38.72;;;;;;;0.64;56.01;95056.63;4976693;28;20425;-76
2023/02/16 06:55:24;;;;;;;58.22;37.92;;;;;;;0.63;55.95;95054.25;4973947;28;20053;-76
2023/02/16 06:57:49;;;;;;;66.55;41.63;;;;;;;0.62;56.05;95040.34;4977908;28;20168;-76
2023/02/16 07:00:15;;;;;;;70.72;42.20;;;;;;;0.09;57.76;95034.16;4974074;28;20042;-76
2023/02/16 07:02:42;;;;;;;70.63;44.88;;;;;;;-0.18;58.75;95005.66;4990210;28;20558;-76
2023/02/16 07:05:09;;;;;;;73.63;42.75;;;;;;;0.33;57.92;95062.06;4973906;28;20552;-76
2023/02/16 07:07:34;;;;;;;79.97;47.03;;;;;;;0.52;57.87;95055.78;4976701;28;20042;-76
2023/02/16 07:10:01;;;;;;;85.20;51.97;;;;;;;0.33;58.62;95055.00;4972122;28;20034;-76
2023/02/16 07:12:27;;;;;;;81.80;50.58;;;;;;;0.40;59.02;95051.53;4972094;28;20529;-75
2023/02/16 07:14:53;;;;;;;87.13;51.28;;;;;;;-0.04;60.48;95050.00;4972366;28;20517;-75
2023/02/16 07:17:18;;;;;;;90.43;51.17;;;;;;;-0.27;61.70;95048.78;4975288;28;20038;-75
2023/02/16 07:19:44;;;;;;;87.90;51.58;;;;;;;-0.47;62.64;95034.28;4975032;28;20042;-74
2023/02/16 07:22:09;;;;;;;92.88;53.30;;;;;;;-1.03;64.68;95002.00;4961945;28;20592;-76
2023/02/16 07:24:35;;;;;;;87.82;52.83;;;;;;;-0.91;65.60;95015.16;5000379;28;22366;-75
2023/02/16 07:27:00;;;;;;;91.85;54.35;;;;;;;-0.41;64.68;95022.97;4971265;28;20065;-76
2023/02/16 07:29:26;;;;;;;93.40;55.47;;;;;;;-0.63;65.27;95025.19;4973202;28;20039;-75
2023/02/16 07:31:52;;;;;;;93.70;58.08;;;;;;;-0.75;65.55;95000.78;4974811;28;20051;-75
2023/02/16 07:34:17;;;;;;;102.22;57.97;;;;;;;0.02;64.00;95028.19;4969467;28;20136;-76
2023/02/16 07:36:44;;;;;;;83.70;48.60;;;;;;;-0.13;62.72;95016.25;4971528;28;20133;-74
2023/02/16 07:39:10;;;;;;;83.47;49.72;;;;;;;-0.52;64.87;95022.66;4971860;28;20061;-75
2023/02/16 07:41:35;;;;;;;92.35;51.45;;;;;;;-0.39;65.11;95028.81;4974709;28;20156;-75
2023/02/16 07:44:01;;;;;;;93.03;56.05;;;;;;;-0.45;65.84;95006.94;4970554;28;20046;-74
2023/02/16 07:46:26;;;;;;;94.68;56.63;;;;;;;-1.06;66.79;95002.41;4969416;28;20478;-75
2023/02/16 07:48:51;;;;;;;108.57;55.25;;;;;;;-0.70;67.70;95034.88;4970295;28;20069;-75
2023/02/16 07:51:25;;;;;;;101.10;58.75;;;;;;;-0.45;66.62;95027.84;4973192;28;20034;-75
2023/02/16 07:53:52;;;;;;;97.35;54.05;;;;;;;-0.20;65.88;95026.00;4970925;28;20046;-75
2023/02/16 07:56:29;;;;;;;88.50;53.50;;;;;;;-0.20;65.64;95020.78;4971187;28;20489;-75
2023/02/16 07:58:56;;;;;;;90.18;53.42;;;;;;;0.14;64.63;95016.78;4964199;28;20042;-75
2023/02/16 08:01:23;;;;;;;96.78;57.97;;;;;;;0.64;62.15;95022.59;4970907;28;20026;-75
2023/02/16 08:03:52;;;;;;;92.20;55.88;;;;;;;0.64;61.59;95035.69;4973974;28;20061;-77
2023/02/16 08:06:18;;;;;;;84.95;48.55;;;;;;;0.56;61.95;95025.53;4974655;28;20517;-76
2023/02/16 08:08:44;;;;;;;90.80;49.17;;;;;;;0.86;61.11;95022.13;4977173;28;20042;-75
2023/02/16 08:11:15;;;;;;;84.18;49.47;;;;;;;0.51;60.95;95001.81;4974104;28;20050;-76
2023/02/16 08:13:41;;;;;;;81.00;49.85;;;;;;;0.65;62.19;95037.28;4972642;28;20050;-75
2023/02/16 08:16:09;;;;;;;82.53;50.33;;;;;;;0.44;62.20;95029.94;4972745;28;20030;-74
2023/02/16 08:18:34;;;;;;;88.43;49.60;;;;;;;0.77;60.98;95008.53;4976078;28;20018;-74
2023/02/16 08:21:16;;;;;;;87.57;50.53;;;;;;;1.34;59.93;95049.00;4971639;28;20586;-76
2023/02/16 08:23:51;;;;;;;87.15;50.33;;;;;;;1.40;59.43;95042.88;4959619;28;20837;-74
2023/02/16 08:26:18;;;;;;;96.55;51.28;;;;;;;1.38;59.19;95037.03;4962405;28;20057;-74
2023/02/16 08:28:46;;;;;;;88.20;49.35;;;;;;;1.54;58.69;95040.81;4962142;28;20632;-73
2023/02/16 08:31:13;;;;;;;85.18;50.72;;;;;;;1.78;57.15;95025.91;4969178;28;20018;-73
2023/02/16 08:33:39;;;;;;;95.72;55.13;;;;;;;2.03;56.78;95050.91;4970265;28;20037;-75
2023/02/16 08:36:08;;;;;;;102.50;59.17;;;;;;;1.87;56.94;95048.16;4971673;28;20038;-75
2023/02/16 08:38:36;;;;;;;104.88;56.80;;;;;;;1.83;57.60;95053.03;4970157;28;20550;-76
2023/02/16 08:41:02;;;;;;;88.72;55.20;;;;;;;2.01;56.90;95039.81;4970509;28;20050;-75
2023/02/16 08:43:27;;;;;;;96.13;54.88;;;;;;;2.02;56.32;95030.13;5004988;28;20514;-75
2023/02/16 08:45:53;;;;;;;86.10;55.90;;;;;;;1.94;56.08;95033.91;4975756;28;20030;-76
2023/02/16 08:48:18;;;;;;;86.47;52.72;;;;;;;1.84;56.81;95032.84;4975277;28;20406;-74
2023/02/16 08:50:45;;;;;;;82.20;51.00;;;;;;;1.58;57.40;95050.63;4974295;28;20057;-76
2023/02/16 08:53:12;;;;;;;87.32;53.47;;;;;;;1.32;58.26;95022.25;4976623;28;20038;-77
2023/02/16 08:55:38;;;;;;;78.13;51.63;;;;;;;1.73;58.34;95041.53;4975745;28;20046;-77
2023/02/16 08:58:04;;;;;;;87.70;53.55;;;;;;;1.89;57.67;95043.50;4968199;28;20022;-75
2023/02/16 09:00:32;;;;;;;85.28;51.25;;;;;;;1.84;57.93;95038.91;4971340;28;20382;-77
2023/02/16 09:02:59;;;;;;;80.80;49.08;;;;;;;1.64;57.05;95002.53;4967410;28;20067;-77
2023/02/16 09:05:24;;;;;;;87.22;53.45;;;;;;;1.33;58.47;95009.91;4969721;28;20070;-77
2023/02/16 09:07:51;;;;;;;85.95;49.78;;;;;;;1.97;56.74;95014.28;4969723;28;20038;-77
2023/02/16 09:10:17;;;;;;;85.30;49.90;;;;;;;2.01;57.05;95045.06;4969403;28;20034;-77
2023/02/16 09:12:47;;;;;;;86.70;50.83;;;;;;;1.75;57.88;95042.09;4957693;28;20236;-76
2023/02/16 09:15:14;;;;;;;90.05;53.08;;;;;;;1.43;58.28;95010.16;4963873;28;20859;-75
2023/02/16 09:17:41;;;;;;;85.10;52.08;;;;;;;1.50;58.06;94997.75;4970746;28;20045;-76
2023/02/16 09:20:07;;;;;;;85.82;50.90;;;;;;;2.14;56.51;95032.75;4967809;28;20034;-76
2023/02/16 09:22:33;;;;;;;83.55;52.70;;;;;;;2.31;56.16;95008.16;4964725;28;20042;-77
2023/02/16 09:24:58;;;;;;;88.68;54.40;;;;;;;2.12;56.82;95029.56;4967446;28;20482;-76
2023/02/16 09:27:24;;;;;;;93.88;55.97;;;;;;;2.07;57.44;95032.88;4967743;28;20498;-77
2023/02/16 09:29:50;;;;;;;93.65;54.13;;;;;;;1.87;57.33;95022.72;4968798;28;20372;-76
2023/02/16 09:32:16;;;;;;;93.43;56.50;;;;;;;2.50;56.36;95030.59;4970648;28;20611;-76
2023/02/16 09:34:43;;;;;;;95.28;53.13;;;;;;;2.68;55.68;95005.22;4966784;28;20093;-76
2023/02/16 09:37:09;;;;;;;91.70;52.75;;;;;;;2.74;55.55;94988.53;4962532;28;20025;-76
2023/02/16 09:39:35;;;;;;;87.00;51.50;;;;;;;2.48;55.45;95016.94;4969686;28;20077;-76
2023/02/16 09:42:56;;;;;;;89.18;52.58;;;;;;;2.97;54.94;95017.31;4967743;28;20061;-76
2023/02/16 09:45:25;;;;;;;92.55;53.08;;;;;;;2.92;54.49;95006.72;4963066;28;20062;-77
2023/02/16 09:47:53;;;;;;;83.47;52.10;;;;;;;2.75;55.00;95001.41;4968449;28;20054;-76
2023/02/16 09:50:19;;;;;;;85.18;53.20;;;;;;;3.16;53.91;95021.31;4968295;28;20042;-76
2023/02/16 09:53:02;;;;;;;85.80;51.72;;;;;;;3.09;53.66;95012.78;4970403;28;20112;-76
2023/02/16 09:55:38;;;;;;;86.57;51.95;;;;;;;2.93;54.81;95013.56;4968905;28;20050;-77
2023/02/16 09:58:29;;;;;;;89.57;52.47;;;;;;;2.94;54.33;94986.22;4968883;28;20034;-76
2023/02/16 10:01:06;;;;;;;89.43;51.67;;;;;;;3.18;54.34;95000.88;4971724;28;20030;-75
2023/02/16 10:04:01;;;;;;;83.22;50.50;;;;;;;3.86;53.25;94991.91;4983115;28;20087;-74
2023/02/16 10:06:36;;;;;;;84.13;50.35;;;;;;;3.59;52.69;94983.88;4970555;28;20585;-76
2023/02/16 10:09:10;;;;;;;91.80;51.88;;;;;;;3.91;52.08;94981.44;4961788;28;21095;-73
2023/02/16 10:11:47;;;;;;;85.07;50.50;;;;;;;4.04;51.65;94985.56;4971482;28;21133;-77
2023/02/16 10:14:40;;;;;;;84.93;49.38;;;;;;;3.95;52.27;94981.75;4971930;28;20086;-75
2023/02/16 10:17:33;;;;;;;78.00;47.25;;;;;;;4.13;51.65;94976.97;4971912;28;20279;-76
2023/02/16 10:20:05;;;;;;;86.57;47.58;;;;;;;4.27;50.91;94964.25;4971422;28;20038;-77
2023/02/16 10:23:05;;;;;;;79.57;50.15;;;;;;;3.97;51.67;94969.91;4964217;28;20424;-76
2023/02/16 10:25:53;;;;;;;85.47;48.08;;;;;;;4.39;50.44;94956.25;4964849;28;20502;-77
2023/02/16 10:28:37;;;;;;;81.93;49.40;;;;;;;4.69;50.07;94967.13;4972827;28;20077;-76
2023/02/16 10:31:09;;;;;;;80.85;49.63;;;;;;;5.11;49.13;94970.69;4973827;28;20041;-77
2023/02/16 10:33:44;;;;;;;91.95;51.70;;;;;;;5.17;48.18;94947.81;4971618;28;20095;-76
2023/02/16 10:36:27;;;;;;;80.55;49.53;;;;;;;5.22;48.01;94934.66;4971941;28;20039;-77
2023/02/16 10:39:26;;;;;;;80.25;50.67;;;;;;;4.99;48.29;94930.50;4974081;28;20045;-76
2023/02/16 10:42:04;;;;;;;85.93;50.95;;;;;;;5.03;48.54;94936.88;4973414;28;20039;-76
2023/02/16 10:44:39;;;;;;;80.82;51.17;;;;;;;5.14;48.65;94949.09;4973674;28;20109;-76
2023/02/16 10:47:12;;;;;;;83.68;50.75;;;;;;;4.46;50.18;94955.00;4973388;28;20042;-76
2023/02/16 10:49:38;;;;;;;80.90;48.60;;;;;;;4.67;49.56;94950.75;4971284;28;20549;-76
2023/02/16 10:52:06;;;;;;;79.78;48.22;;;;;;;4.57;49.93;94930.38;4973103;28;20398;-76
2023/02/16 10:54:32;;;;;;;82.43;48.40;;;;;;;4.80;49.34;94921.38;4973587;28;20457;-76
2023/02/16 10:57:00;;;;;;;83.03;47.95;;;;;;;4.78;49.75;94949.81;4972770;28;20046;-76
2023/02/16 10:59:40;;;;;;;85.10;50.15;;;;;;;4.85;48.98;94918.78;4972677;28;20030;-76
2023/02/16 11:02:35;;;;;;;78.38;46.15;;;;;;;5.42;48.39;94931.38;4971646;28;20035;-76
2023/02/16 11:05:02;;;;;;;85.68;47.35;;;;;;;4.94;48.88;94927.03;4972916;28;20038;-77
2023/02/16 11:07:30;;;;;;;78.65;46.08;;;;;;;5.20;48.08;94901.66;4974369;28;20034;-76
2023/02/16 11:10:00;;;;;;;83.75;48.05;;;;;;;5.29;48.43;94913.31;4972113;28;20245;-77
2023/02/16 11:12:32;;;;;;;82.30;50.53;;;;;;;5.52;47.38;94919.06;4986813;28;20402;-76
2023/02/16 11:15:03;;;;;;;74.03;47.45;;;;;;;5.19;48.46;94913.28;4970918;28;20122;-76
2023/02/16 11:17:31;;;;;;;81.05;48.22;;;;;;;5.14;48.39;94880.53;4971708;28;20041;-76
2023/02/16 11:20:08;;;;;;;77.85;50.83;;;;;;;5.85;47.43;94909.19;4972026;28;21855;-77
2023/02/16 11:22:38;;;;;;;82.45;48.97;;;;;;;5.82;47.07;94901.81;4960432;28;20046;-77
2023/02/16 11:25:25;;;;;;;76.68;46.15;;;;;;;6.18;45.81;94910.69;4967905;28;20026;-77
2023/02/16 11:27:57;;;;;;;74.13;45.38;;;;;;;6.51;45.42;94910.25;4970365;28;20026;-77
2023/02/16 11:30:31;;;;;;;72.30;45.15;;;;;;;6.39;45.43;94886.75;4976302;28;20618;-76
2023/02/16 11:32:59;;;;;;;75.97;47.60;;;;;;;6.05;45.82;94887.38;4974345;28;21154;-77
2023/02/16 11:35:25;;;;;;;70.88;44.63;;;;;;;5.84;46.62;94900.47;4975463;28;20462;-76
2023/02/16 11:37:50;;;;;;;86.85;46.83;;;;;;;6.02;46.39;94881.53;4972306;28;20084;-76
2023/02/16 11:40:31;;;;;;;71.93;43.83;;;;;;;6.15;46.39;94903.25;4971148;28;20061;-76
2023/02/16 11:43:00;;;;;;;76.72;43.28;;;;;;;6.61;45.50;94894.44;4977716;28;20040;-76
2023/02/16 11:45:26;;;;;;;77.00;45.58;;;;;;;6.72;45.99;94890.75;4972972;28;20604;-76
2023/02/16 11:47:55;;;;;;;75.40;45.95;;;;;;;6.29;45.58;94883.25;4977291;28;20050;-77
2023/02/16 11:50:24;;;;;;;90.60;44.80;;;;;;;6.39;45.33;94862.94;4971366;28;20050;-76
2023/02/16 11:53:15;;;;;;;80.55;48.88;;;;;;;6.48;45.25;94888.84;4976699;28;20041;-76
2023/02/16 11:55:44;;;;;;;76.10;46.78;;;;;;;6.40;44.64;94877.75;4975546;28;20057;-76
2023/02/16 11:58:23;;;;;;;82.13;46.90;;;;;;;6.70;44.15;94847.16;4975936;28;20137;-76
2023/02/16 12:00:56;;;;;;;75.13;46.55;;;;;;;6.70;44.43;94886.81;4971434;28;20439;-76
2023/02/16 12:03:45;;;;;;;79.53;46.30;;;;;;;6.64;43.64;94858.75;4961122;28;20085;-75
2023/02/16 12:06:30;;;;;;;80.70;45.70;;;;;;;6.81;43.82;94864.59;4968733;28;20046;-74
2023/02/16 12:09:01;;;;;;;74.70;44.20;;;;;;;7.32;44.95;94857.44;4988629;28;20097;-74
2023/02/16 12:11:47;;;;;;;73.90;46.40;;;;;;;7.30;42.75;94838.38;4973851;28;20233;-75
2023/02/16 12:14:12;;;;;;;;;;;;;;;7.36;43.09;94857.69;4974003;28;20414;-74
2023/02/16 12:16:46;;;;;;;70.53;42.60;;;;;;;7.17;43.16;94854.81;4974711;28;19925;-76
2023/02/16 12:19:14;;;;;;;77.80;44.17;;;;;;;6.67;44.12;94845.81;4972054;28;20277;-74